sensor_id;sensor_type;location;lat;lon;timestamp;temperature;humidity
10143;DHT22;5112;54.088;13.446;2022-08-21T00:05:42;17.50;99.90
10143;DHT22;5112;54.088;13.446;2022-08-21T00:15:44;17.50;99.90
10143;DHT22;5112;54.088;13.446;2022-08-21T00:25:48;17.40;99.90
10143;DHT22;5112;54.088;13.446;2022-08-21T00:35:50;17.30;99.90
10143;DHT22;5112;54.088;13.446;2022-08-21T00:45:54;17.30;99.90
10143;DHT22;5112;54.088;13.446;2022-08-21T00:55:57;17.20;99.90
10143;DHT22;5112;54.088;13.446;2022-08-21T01:06:02;17.10;99.90
10143;DHT22;5112;54.088;13.446;2022-08-21T01:16:09;17.00;99.90
10143;DHT22;5112;54.088;13.446;2022-08-21T01:26:13;17.00;99.90
10143;DHT22;5112;54.088;13.446;2022-08-21T01:36:16;16.80;99.90
10143;DHT22;5112;54.088;13.446;2022-08-21T01:46:19;16.70;99.90
10143;DHT22;5112;54.088;13.446;2022-08-21T01:56:21;16.60;99.90
10143;DHT22;5112;54.088;13.446;2022-08-21T02:06:24;16.50;99.90
10143;DHT22;5112;54.088;13.446;2022-08-21T02:16:26;16.40;99.90
10143;DHT22;5112;54.088;13.446;2022-08-21T02:26:30;16.30;99.90
10143;DHT22;5112;54.088;13.446;2022-08-21T02:36:32;16.30;99.90
10143;DHT22;5112;54.088;13.446;2022-08-21T02:46:35;16.20;99.90
10143;DHT22;5112;54.088;13.446;2022-08-21T02:56:36;16.10;99.90
10143;DHT22;5112;54.088;13.446;2022-08-21T03:06:39;16.30;99.90
10143;DHT22;5112;54.088;13.446;2022-08-21T03:16:41;16.40;99.90
10143;DHT22;5112;54.088;13.446;2022-08-21T03:26:44;16.40;99.90
10143;DHT22;5112;54.088;13.446;2022-08-21T03:36:46;16.30;99.90
10143;DHT22;5112;54.088;13.446;2022-08-21T03:46:50;16.30;99.90
10143;DHT22;5112;54.088;13.446;2022-08-21T03:56:52;16.30;99.90
10143;DHT22;5112;54.088;13.446;2022-08-21T04:06:56;16.40;99.90
10143;DHT22;5112;54.088;13.446;2022-08-21T04:16:58;16.20;99.90
10143;DHT22;5112;54.088;13.446;2022-08-21T04:27:01;16.30;99.90
10143;DHT22;5112;54.088;13.446;2022-08-21T04:37:03;16.30;99.90
10143;DHT22;5112;54.088;13.446;2022-08-21T04:47:06;16.40;99.90
10143;DHT22;5112;54.088;13.446;2022-08-21T04:57:09;16.60;99.90
10143;DHT22;5112;54.088;13.446;2022-08-21T05:07:19;17.00;99.90
10143;DHT22;5112;54.088;13.446;2022-08-21T05:17:21;17.10;99.90
10143;DHT22;5112;54.088;13.446;2022-08-21T05:27:25;17.30;99.90
10143;DHT22;5112;54.088;13.446;2022-08-21T05:37:29;17.70;99.90
10143;DHT22;5112;54.088;13.446;2022-08-21T05:47:32;18.10;99.90
10143;DHT22;5112;54.088;13.446;2022-08-21T05:57:34;18.10;99.90
10143;DHT22;5112;54.088;13.446;2022-08-21T06:07:37;18.20;99.90
10143;DHT22;5112;54.088;13.446;2022-08-21T06:17:40;18.20;99.90
10143;DHT22;5112;54.088;13.446;2022-08-21T06:27:44;18.40;99.90
10143;DHT22;5112;54.088;13.446;2022-08-21T06:37:46;18.60;99.90
10143;DHT22;5112;54.088;13.446;2022-08-21T06:47:53;18.90;99.90
10143;DHT22;5112;54.088;13.446;2022-08-21T06:57:57;19.00;99.90
10143;DHT22;5112;54.088;13.446;2022-08-21T07:08:01;19.20;99.90
10143;DHT22;5112;54.088;13.446;2022-08-21T07:18:03;19.50;99.90
10143;DHT22;5112;54.088;13.446;2022-08-21T07:28:06;19.70;99.90
10143;DHT22;5112;54.088;13.446;2022-08-21T07:38:09;19.70;99.90
10143;DHT22;5112;54.088;13.446;2022-08-21T07:48:12;19.80;99.90
10143;DHT22;5112;54.088;13.446;2022-08-21T07:58:14;20.10;99.90
10143;DHT22;5112;54.088;13.446;2022-08-21T08:08:17;20.30;99.90
10143;DHT22;5112;54.088;13.446;2022-08-21T08:18:18;20.50;99.90
10143;DHT22;5112;54.088;13.446;2022-08-21T08:28:21;20.40;99.90
10143;DHT22;5112;54.088;13.446;2022-08-21T08:38:25;20.60;99.90
10143;DHT22;5112;54.088;13.446;2022-08-21T08:48:39;20.70;99.90
10143;DHT22;5112;54.088;13.446;2022-08-21T08:58:43;20.80;99.90
10143;DHT22;5112;54.088;13.446;2022-08-21T09:08:53;21.20;99.90
10143;DHT22;5112;54.088;13.446;2022-08-21T09:19:03;21.60;99.90
10143;DHT22;5112;54.088;13.446;2022-08-21T09:29:10;21.60;99.90
10143;DHT22;5112;54.088;13.446;2022-08-21T09:39:23;21.90;99.90
10143;DHT22;5112;54.088;13.446;2022-08-21T09:49:32;22.50;99.90
10143;DHT22;5112;54.088;13.446;2022-08-21T09:59:35;21.50;99.90
10143;DHT22;5112;54.088;13.446;2022-08-21T10:09:39;21.10;99.90
10143;DHT22;5112;54.088;13.446;2022-08-21T10:19:47;21.60;99.90
10143;DHT22;5112;54.088;13.446;2022-08-21T10:29:57;21.90;99.90
10143;DHT22;5112;54.088;13.446;2022-08-21T10:40:07;22.30;99.90
10143;DHT22;5112;54.088;13.446;2022-08-21T10:50:19;22.20;99.90
10143;DHT22;5112;54.088;13.446;2022-08-21T11:00:28;22.70;99.90
10143;DHT22;5112;54.088;13.446;2022-08-21T11:10:34;22.70;99.90
10143;DHT22;5112;54.088;13.446;2022-08-21T11:20:41;22.90;99.90
10143;DHT22;5112;54.088;13.446;2022-08-21T11:31:06;23.00;99.90
10143;DHT22;5112;54.088;13.446;2022-08-21T11:41:22;23.20;99.90
10143;DHT22;5112;54.088;13.446;2022-08-21T11:51:31;23.20;99.90
10143;DHT22;5112;54.088;13.446;2022-08-21T12:01:38;23.70;99.90
10143;DHT22;5112;54.088;13.446;2022-08-21T12:11:49;23.30;99.90
10143;DHT22;5112;54.088;13.446;2022-08-21T12:21:54;23.70;99.90
10143;DHT22;5112;54.088;13.446;2022-08-21T12:32:02;24.00;99.90
10143;DHT22;5112;54.088;13.446;2022-08-21T12:42:11;24.40;99.90
10143;DHT22;5112;54.088;13.446;2022-08-21T12:52:21;23.80;99.90
10143;DHT22;5112;54.088;13.446;2022-08-21T13:02:28;23.20;99.90
10143;DHT22;5112;54.088;13.446;2022-08-21T13:12:33;22.90;99.90
10143;DHT22;5112;54.088;13.446;2022-08-21T13:22:41;23.00;99.90
10143;DHT22;5112;54.088;13.446;2022-08-21T13:32:48;23.20;99.90
10143;DHT22;5112;54.088;13.446;2022-08-21T13:42:51;23.10;99.90
10143;DHT22;5112;54.088;13.446;2022-08-21T13:52:59;23.80;99.90
10143;DHT22;5112;54.088;13.446;2022-08-21T14:03:05;24.80;99.90
10143;DHT22;5112;54.088;13.446;2022-08-21T14:13:23;24.60;99.90
10143;DHT22;5112;54.088;13.446;2022-08-21T14:23:26;24.20;99.90
10143;DHT22;5112;54.088;13.446;2022-08-21T14:33:32;24.20;99.90
10143;DHT22;5112;54.088;13.446;2022-08-21T14:43:33;23.70;99.90
10143;DHT22;5112;54.088;13.446;2022-08-21T14:53:37;23.00;99.90
10143;DHT22;5112;54.088;13.446;2022-08-21T15:03:38;23.10;99.90
10143;DHT22;5112;54.088;13.446;2022-08-21T15:13:41;23.30;99.90
10143;DHT22;5112;54.088;13.446;2022-08-21T15:23:43;23.00;99.90
10143;DHT22;5112;54.088;13.446;2022-08-21T15:33:46;22.80;99.90
10143;DHT22;5112;54.088;13.446;2022-08-21T15:43:50;22.70;99.90
10143;DHT22;5112;54.088;13.446;2022-08-21T15:53:54;22.60;99.90
10143;DHT22;5112;54.088;13.446;2022-08-21T16:03:57;22.40;99.90
10143;DHT22;5112;54.088;13.446;2022-08-21T16:14:00;22.40;99.90
10143;DHT22;5112;54.088;13.446;2022-08-21T16:24:02;22.50;99.90
10143;DHT22;5112;54.088;13.446;2022-08-21T16:34:06;22.60;99.90
10143;DHT22;5112;54.088;13.446;2022-08-21T16:44:10;22.40;99.90
10143;DHT22;5112;54.088;13.446;2022-08-21T16:54:13;22.30;99.90
10143;DHT22;5112;54.088;13.446;2022-08-21T17:04:14;22.10;99.90
10143;DHT22;5112;54.088;13.446;2022-08-21T17:14:20;22.10;99.90
10143;DHT22;5112;54.088;13.446;2022-08-21T17:24:22;22.20;99.90
10143;DHT22;5112;54.088;13.446;2022-08-21T17:34:25;22.10;99.90
10143;DHT22;5112;54.088;13.446;2022-08-21T17:44:27;22.20;99.90
10143;DHT22;5112;54.088;13.446;2022-08-21T17:54:31;21.70;99.90
10143;DHT22;5112;54.088;13.446;2022-08-21T18:04:33;21.40;99.90
10143;DHT22;5112;54.088;13.446;2022-08-21T18:14:36;20.90;99.90
10143;DHT22;5112;54.088;13.446;2022-08-21T18:24:38;20.50;99.90
10143;DHT22;5112;54.088;13.446;2022-08-21T18:34:41;20.10;99.90
10143;DHT22;5112;54.088;13.446;2022-08-21T18:44:46;19.70;99.90
10143;DHT22;5112;54.088;13.446;2022-08-21T18:54:49;19.50;99.90
10143;DHT22;5112;54.088;13.446;2022-08-21T19:04:51;19.10;99.90
10143;DHT22;5112;54.088;13.446;2022-08-21T19:14:55;18.80;99.90
10143;DHT22;5112;54.088;13.446;2022-08-21T19:24:56;18.50;99.90
10143;DHT22;5112;54.088;13.446;2022-08-21T19:34:59;18.20;99.90
10143;DHT22;5112;54.088;13.446;2022-08-21T19:45:03;18.00;99.90
10143;DHT22;5112;54.088;13.446;2022-08-21T19:55:07;17.80;99.90
10143;DHT22;5112;54.088;13.446;2022-08-21T20:05:10;17.60;99.90
10143;DHT22;5112;54.088;13.446;2022-08-21T20:15:15;17.50;99.90
10143;DHT22;5112;54.088;13.446;2022-08-21T20:25:18;17.30;99.90
10143;DHT22;5112;54.088;13.446;2022-08-21T20:35:22;17.20;99.90
10143;DHT22;5112;54.088;13.446;2022-08-21T20:45:25;17.10;99.90
10143;DHT22;5112;54.088;13.446;2022-08-21T20:55:30;17.00;99.90
10143;DHT22;5112;54.088;13.446;2022-08-21T21:05:37;17.00;99.90
10143;DHT22;5112;54.088;13.446;2022-08-21T21:15:43;16.80;99.90
10143;DHT22;5112;54.088;13.446;2022-08-21T21:25:52;16.70;99.90
10143;DHT22;5112;54.088;13.446;2022-08-21T21:36:12;16.60;99.90
10143;DHT22;5112;54.088;13.446;2022-08-21T21:46:25;16.60;99.90
10143;DHT22;5112;54.088;13.446;2022-08-21T21:56:39;16.50;99.90
10143;DHT22;5112;54.088;13.446;2022-08-21T22:06:52;16.30;99.90
10143;DHT22;5112;54.088;13.446;2022-08-21T22:16:59;16.10;99.90
10143;DHT22;5112;54.088;13.446;2022-08-21T22:27:07;15.90;99.90
10143;DHT22;5112;54.088;13.446;2022-08-21T22:37:11;15.80;99.90
10143;DHT22;5112;54.088;13.446;2022-08-21T22:47:18;15.60;99.90
10143;DHT22;5112;54.088;13.446;2022-08-21T22:57:24;15.60;99.90
10143;DHT22;5112;54.088;13.446;2022-08-21T23:07:33;15.50;99.90
10143;DHT22;5112;54.088;13.446;2022-08-21T23:17:42;15.50;99.90
10143;DHT22;5112;54.088;13.446;2022-08-21T23:27:53;15.50;99.90
10143;DHT22;5112;54.088;13.446;2022-08-21T23:38:05;15.40;99.90
10143;DHT22;5112;54.088;13.446;2022-08-21T23:48:18;15.50;99.90
10143;DHT22;5112;54.088;13.446;2022-08-21T23:58:30;15.50;99.90
